createdAt,value
2022-11-17T00:00:42.683Z,96.37
2022-11-17T00:03:14.789Z,94.57
2022-11-17T00:05:42.969Z,98.57
2022-11-17T00:08:11.056Z,92.97
2022-11-17T00:10:39.017Z,97.70
2022-11-17T00:13:24.692Z,97.30
2022-11-17T00:15:52.715Z,97.87
2022-11-17T00:18:39.503Z,103.57
2022-11-17T00:21:21.353Z,95.67
2022-11-17T00:23:50.363Z,101.00
2022-11-17T00:26:20.991Z,94.27
2022-11-17T00:28:49.397Z,90.47
2022-11-17T00:31:34.852Z,88.60
2022-11-17T00:34:07.314Z,89.53
2022-11-17T00:36:38.704Z,89.03
2022-11-17T00:39:07.271Z,91.20
2022-11-17T00:41:35.314Z,94.87
2022-11-17T00:44:03.660Z,87.17
2022-11-17T00:46:31.794Z,85.43
2022-11-17T00:49:00.040Z,88.97
2022-11-17T00:51:29.550Z,78.00
2022-11-17T00:53:57.905Z,84.37
2022-11-17T00:56:26.719Z,85.67
2022-11-17T00:58:54.885Z,91.80
2022-11-17T01:01:23.428Z,86.47
2022-11-17T01:03:51.484Z,83.77
2022-11-17T01:06:22.580Z,81.93
2022-11-17T01:08:51.988Z,87.97
2022-11-17T01:11:21.151Z,85.70
2022-11-17T01:13:49.648Z,89.90
2022-11-17T01:16:19.395Z,84.13
2022-11-17T01:18:49.027Z,83.10
2022-11-17T01:21:19.890Z,81.87
2022-11-17T01:23:50.112Z,81.50
2022-11-17T01:26:21.567Z,72.27
2022-11-17T01:28:50.442Z,82.77
2022-11-17T01:31:20.532Z,84.23
2022-11-17T01:33:49.459Z,80.80
2022-11-17T01:36:20.943Z,90.10
2022-11-17T01:38:49.133Z,75.67
2022-11-17T01:41:19.959Z,76.67
2022-11-17T01:43:50.219Z,78.63
2022-11-17T01:46:30.275Z,79.67
2022-11-17T01:49:04.253Z,80.17
2022-11-17T01:51:34.455Z,74.63
2022-11-17T01:54:03.707Z,81.20
2022-11-17T01:56:40.211Z,82.03
2022-11-17T01:59:13.933Z,75.13
2022-11-17T02:01:55.854Z,75.03
2022-11-17T02:04:27.244Z,72.67
2022-11-17T02:07:02.660Z,76.83
2022-11-17T02:09:31.067Z,76.97
2022-11-17T02:12:00.704Z,85.93
2022-11-17T02:14:29.542Z,75.27
2022-11-17T02:17:01.355Z,84.70
2022-11-17T02:19:38.221Z,76.27
2022-11-17T02:22:34.820Z,79.87
2022-11-17T02:25:30.013Z,80.83
2022-11-17T02:28:13.412Z,78.00
2022-11-17T02:30:50.739Z,86.10
2022-11-17T02:33:26.573Z,86.07
2022-11-17T02:36:03.088Z,83.20
2022-11-17T02:38:36.584Z,82.80
2022-11-17T02:41:11.409Z,80.70
2022-11-17T02:44:03.623Z,81.93
2022-11-17T02:46:42.153Z,85.77
2022-11-17T02:49:17.135Z,89.47
2022-11-17T02:51:46.803Z,84.07
2022-11-17T02:54:15.735Z,91.63
2022-11-17T02:56:44.271Z,86.73
2022-11-17T02:59:16.732Z,83.30
2022-11-17T03:02:16.707Z,85.17
2022-11-17T03:04:54.104Z,85.90
2022-11-17T03:07:38.289Z,86.53
2022-11-17T03:10:15.733Z,88.07
2022-11-17T03:12:51.193Z,93.53
2022-11-17T03:15:29.337Z,92.57
2022-11-17T03:18:07.770Z,91.83
2022-11-17T03:20:43.416Z,105.50
2022-11-17T03:23:18.000Z,90.93
2022-11-17T03:25:51.514Z,92.60
2022-11-17T03:28:23.075Z,90.20
2022-11-17T03:30:55.144Z,95.33
2022-11-17T03:33:25.246Z,94.43
2022-11-17T03:36:03.914Z,97.40
2022-11-17T03:38:36.399Z,91.90
2022-11-17T03:41:06.592Z,94.93
2022-11-17T03:43:34.840Z,97.80
2022-11-17T03:46:09.714Z,89.10
2022-11-17T03:48:42.938Z,98.90
2022-11-17T03:51:15.446Z,96.80
2022-11-17T03:53:44.241Z,99.30
2022-11-17T03:56:24.179Z,97.17
2022-11-17T03:58:56.993Z,99.27
2022-11-17T04:01:29.032Z,98.37
2022-11-17T04:03:57.554Z,95.37
2022-11-17T04:06:25.597Z,99.57
2022-11-17T04:08:53.665Z,106.20
2022-11-17T04:11:39.252Z,104.43
2022-11-17T04:14:24.564Z,100.47
2022-11-17T04:16:53.982Z,103.80
2022-11-17T04:19:22.028Z,106.87
2022-11-17T04:21:50.276Z,99.00
2022-11-17T04:24:18.380Z,101.93
2022-11-17T04:27:03.987Z,102.73
2022-11-17T04:29:34.173Z,104.87
2022-11-17T04:32:04.611Z,106.03
2022-11-17T04:34:32.618Z,113.30
2022-11-17T04:37:05.326Z,104.77
2022-11-17T04:39:38.806Z,108.83
2022-11-17T04:42:05.879Z,111.03
2022-11-17T04:44:33.993Z,108.07
2022-11-17T04:47:03.680Z,111.10
2022-11-17T04:49:33.940Z,104.70
2022-11-17T04:52:02.108Z,105.03
2022-11-17T04:54:31.299Z,106.37
2022-11-17T04:56:59.328Z,106.27
2022-11-17T04:59:27.451Z,112.60
2022-11-17T05:01:55.487Z,102.20
2022-11-17T05:04:40.823Z,110.73
2022-11-17T05:07:10.795Z,112.43
2022-11-17T05:09:38.836Z,109.57
2022-11-17T05:12:24.771Z,116.67
2022-11-17T05:14:52.898Z,114.33
2022-11-17T05:17:21.112Z,108.90
2022-11-17T05:19:49.995Z,104.77
2022-11-17T05:22:40.263Z,110.77
2022-11-17T05:25:09.406Z,119.17
2022-11-17T05:27:37.708Z,111.37
2022-11-17T05:30:08.621Z,105.87
2022-11-17T05:32:36.708Z,114.80
2022-11-17T05:35:05.028Z,114.33
2022-11-17T05:37:34.461Z,112.93
2022-11-17T05:40:02.457Z,117.83
2022-11-17T05:42:30.581Z,108.30
2022-11-17T05:44:58.723Z,114.33
2022-11-17T05:47:26.748Z,113.03
2022-11-17T05:49:54.787Z,112.67
2022-11-17T05:52:22.831Z,102.97
2022-11-17T05:54:52.347Z,104.87
2022-11-17T05:57:27.154Z,110.83
2022-11-17T06:00:00.124Z,112.50
2022-11-17T06:02:34.246Z,97.93
2022-11-17T06:05:03.671Z,99.87
2022-11-17T06:07:31.944Z,104.03
2022-11-17T06:10:01.500Z,101.43
2022-11-17T06:12:29.492Z,97.60
2022-11-17T06:14:57.707Z,90.50
2022-11-17T06:17:32.042Z,89.53
2022-11-17T06:20:04.148Z,90.30
2022-11-17T06:22:32.918Z,90.93
2022-11-17T06:25:04.851Z,96.40
2022-11-17T06:27:33.899Z,101.40
2022-11-17T06:30:04.737Z,92.90
2022-11-17T06:32:34.128Z,101.07
2022-11-17T06:35:04.580Z,96.37
2022-11-17T06:37:32.799Z,98.07
2022-11-17T06:40:02.681Z,96.90
2022-11-17T06:42:48.459Z,89.80
2022-11-17T06:45:16.721Z,100.33
2022-11-17T06:47:44.762Z,99.90
2022-11-17T06:50:13.246Z,98.77
2022-11-17T06:52:41.390Z,94.67
2022-11-17T06:55:11.261Z,100.27
2022-11-17T06:57:39.298Z,100.80
2022-11-17T07:00:08.659Z,95.87
2022-11-17T07:02:37.834Z,100.73
2022-11-17T07:05:06.557Z,124.97
2022-11-17T07:07:34.644Z,112.10
2022-11-17T07:10:03.070Z,111.53
2022-11-17T07:12:32.605Z,113.23
2022-11-17T07:15:00.700Z,104.23
2022-11-17T07:17:29.716Z,105.27
2022-11-17T07:19:57.903Z,101.33
2022-11-17T07:22:26.137Z,102.10
2022-11-17T07:24:54.152Z,108.57
2022-11-17T07:27:22.227Z,110.37
2022-11-17T07:29:51.747Z,127.23
2022-11-17T07:32:19.940Z,108.50
2022-11-17T07:34:48.027Z,99.97
2022-11-17T07:37:16.091Z,102.63
2022-11-17T07:39:44.245Z,102.83
2022-11-17T07:42:15.077Z,100.67
2022-11-17T07:44:43.215Z,104.83
2022-11-17T07:47:13.224Z,94.57
2022-11-17T07:49:41.325Z,89.63
2022-11-17T07:52:09.649Z,103.43
2022-11-17T07:54:38.064Z,96.37
2022-11-17T07:57:06.193Z,108.37
2022-11-17T07:59:34.439Z,111.40
2022-11-17T08:02:02.524Z,113.53
2022-11-17T08:04:32.102Z,111.37
2022-11-17T08:07:00.337Z,120.23
2022-11-17T08:09:28.534Z,99.17
2022-11-17T08:11:57.765Z,98.37
2022-11-17T08:14:25.860Z,100.67
2022-11-17T08:16:53.952Z,96.30
2022-11-17T08:19:22.049Z,93.83
2022-11-17T08:21:51.728Z,88.50
2022-11-17T08:24:19.861Z,80.17
2022-11-17T08:26:47.951Z,91.77
2022-11-17T08:29:16.034Z,91.10
2022-11-17T08:31:46.265Z,87.93
2022-11-17T08:34:14.798Z,86.17
2022-11-17T08:36:42.868Z,99.27
2022-11-17T08:39:12.568Z,95.83
2022-11-17T08:41:40.653Z,90.30
2022-11-17T08:44:08.811Z,88.10
2022-11-17T08:46:36.963Z,85.23
2022-11-17T08:49:05.019Z,87.53
2022-11-17T08:51:33.371Z,84.47
2022-11-17T08:54:01.520Z,94.40
2022-11-17T08:56:31.109Z,87.73
2022-11-17T08:58:59.655Z,82.43
2022-11-17T09:01:27.730Z,73.03
2022-11-17T09:03:56.362Z,74.13
2022-11-17T09:06:24.553Z,63.37
2022-11-17T09:08:54.918Z,68.30
2022-11-17T09:11:23.590Z,70.83
2022-11-17T09:13:53.248Z,82.73
2022-11-17T09:16:24.067Z,75.50
2022-11-17T09:18:56.879Z,81.03
2022-11-17T09:21:26.214Z,80.13
2022-11-17T09:23:54.637Z,77.83
2022-11-17T09:26:23.140Z,77.70
2022-11-17T09:28:53.284Z,77.03
2022-11-17T09:31:23.232Z,80.60
2022-11-17T09:33:51.442Z,87.20
2022-11-17T09:36:19.958Z,88.60
2022-11-17T09:38:48.189Z,79.90
2022-11-17T09:41:28.706Z,77.43
2022-11-17T09:44:07.930Z,77.00
2022-11-17T09:46:51.193Z,76.17
2022-11-17T09:49:31.931Z,74.40
2022-11-17T09:52:04.761Z,69.87
2022-11-17T09:54:43.298Z,66.33
2022-11-17T09:57:23.012Z,62.07
2022-11-17T10:00:03.451Z,66.33
2022-11-17T10:02:31.730Z,72.47
2022-11-17T10:05:00.482Z,61.70
2022-11-17T10:07:33.327Z,55.70
2022-11-17T10:10:04.668Z,51.00
2022-11-17T10:12:45.986Z,50.57
2022-11-17T10:15:24.702Z,51.23
2022-11-17T10:17:52.972Z,53.07
2022-11-17T10:20:21.633Z,46.17
2022-11-17T10:22:49.879Z,46.70
2022-11-17T10:25:37.993Z,49.97
2022-11-17T10:28:09.428Z,50.47
2022-11-17T10:30:38.859Z,49.10
2022-11-17T10:33:07.084Z,47.83
2022-11-17T10:35:36.533Z,47.70
2022-11-17T10:38:06.993Z,46.60
2022-11-17T10:40:48.672Z,47.37
2022-11-17T10:43:27.483Z,53.43
2022-11-17T10:45:59.271Z,45.77
2022-11-17T10:48:32.440Z,50.00
2022-11-17T10:51:02.138Z,45.57
2022-11-17T10:53:45.072Z,49.90
2022-11-17T10:56:19.099Z,57.07
2022-11-17T10:59:03.363Z,51.13
2022-11-17T11:01:35.559Z,54.40
2022-11-17T11:04:04.376Z,50.27
2022-11-17T11:06:33.773Z,55.43
2022-11-17T11:09:04.873Z,58.37
2022-11-17T11:11:45.240Z,49.93
2022-11-17T11:14:22.436Z,52.40
2022-11-17T11:16:52.287Z,48.87
2022-11-17T11:19:21.741Z,48.73
2022-11-17T11:22:23.434Z,46.43
2022-11-17T11:24:57.360Z,47.47
2022-11-17T11:27:44.787Z,50.37
2022-11-17T11:30:14.953Z,46.83
2022-11-17T11:32:59.357Z,51.90
2022-11-17T11:35:52.944Z,51.37
2022-11-17T11:38:36.378Z,49.53
2022-11-17T11:41:35.749Z,55.40
2022-11-17T11:44:31.010Z,57.25
2022-11-17T11:47:10.089Z,52.83
2022-11-17T11:49:43.639Z,56.73
2022-11-17T11:52:17.583Z,51.90
2022-11-17T11:54:51.891Z,51.55
2022-11-17T11:57:26.118Z,52.23
2022-11-17T12:00:03.754Z,53.03
2022-11-17T12:02:43.506Z,52.08
2022-11-17T12:05:22.992Z,54.75
2022-11-17T12:07:55.759Z,48.72
2022-11-17T12:10:32.919Z,47.42
2022-11-17T12:13:01.687Z,46.33
2022-11-17T12:15:37.491Z,54.13
2022-11-17T12:18:13.325Z,55.20
2022-11-17T12:20:58.186Z,54.13
2022-11-17T12:23:39.435Z,58.50
2022-11-17T12:26:07.660Z,59.47
2022-11-17T12:28:38.172Z,57.75
2022-11-17T12:31:10.435Z,62.22
2022-11-17T12:34:11.651Z,62.60
2022-11-17T12:36:41.474Z,63.40
2022-11-17T12:39:48.156Z,65.63
2022-11-17T12:42:16.288Z,61.13
2022-11-17T12:45:00.617Z,59.28
2022-11-17T12:47:30.838Z,53.28
2022-11-17T12:50:37.624Z,53.72
2022-11-17T12:53:26.775Z,58.25
2022-11-17T12:56:25.913Z,53.25
2022-11-17T12:59:04.806Z,54.15
2022-11-17T13:01:42.540Z,55.08
2022-11-17T13:04:14.871Z,57.20
2022-11-17T13:07:02.265Z,53.67
2022-11-17T13:09:34.652Z,56.65
2022-11-17T13:12:05.547Z,51.58
2022-11-17T13:14:34.979Z,50.80
2022-11-17T13:17:03.893Z,52.05
2022-11-17T13:19:35.895Z,52.85
2022-11-17T13:22:06.730Z,49.13
2022-11-17T13:24:38.374Z,51.08
2022-11-17T13:27:17.729Z,48.05
2022-11-17T13:29:45.916Z,51.20
2022-11-17T13:32:16.980Z,55.43
2022-11-17T13:34:51.051Z,50.83
2022-11-17T13:37:22.182Z,53.97
2022-11-17T13:40:02.955Z,54.13
2022-11-17T13:42:33.310Z,53.15
2022-11-17T13:45:05.640Z,51.00
2022-11-17T13:47:46.373Z,51.70
2022-11-17T13:50:39.619Z,57.40
2022-11-17T13:53:26.431Z,59.43
2022-11-17T13:55:56.092Z,58.43
2022-11-17T13:58:40.948Z,64.72
2022-11-17T14:01:13.715Z,56.30
2022-11-17T14:03:44.557Z,58.57
2022-11-17T14:06:14.508Z,57.85
2022-11-17T14:08:44.908Z,61.85
2022-11-17T14:11:22.740Z,59.57
2022-11-17T14:13:52.808Z,58.73
2022-11-17T14:16:27.868Z,56.72
2022-11-17T14:18:59.292Z,56.10
2022-11-17T14:21:27.817Z,61.87
2022-11-17T14:24:13.786Z,60.17
2022-11-17T14:26:45.518Z,55.05
2022-11-17T14:29:14.870Z,57.15
2022-11-17T14:31:43.264Z,63.17
2022-11-17T14:34:12.322Z,54.20
2022-11-17T14:36:41.730Z,57.20
2022-11-17T14:39:17.705Z,60.70
2022-11-17T14:41:48.960Z,59.13
2022-11-17T14:44:18.308Z,67.47
2022-11-17T14:46:46.388Z,59.03
2022-11-17T14:49:14.718Z,60.23
2022-11-17T14:51:42.973Z,64.53
2022-11-17T14:54:11.310Z,65.23
2022-11-17T14:56:39.353Z,66.00
2022-11-17T14:59:11.994Z,72.70
2022-11-17T15:01:40.184Z,65.90
2022-11-17T15:04:34.641Z,61.20
2022-11-17T15:06:57.244Z,67.23
2022-11-17T15:09:25.313Z,62.23
2022-11-17T15:11:53.435Z,66.97
2022-11-17T15:14:23.007Z,62.30
2022-11-17T15:16:51.059Z,70.03
2022-11-17T15:19:19.250Z,71.97
2022-11-17T15:21:47.339Z,64.70
2022-11-17T15:24:15.712Z,81.70
2022-11-17T15:26:44.567Z,75.43
2022-11-17T15:29:16.154Z,74.90
2022-11-17T15:31:46.302Z,75.87
2022-11-17T15:34:20.107Z,77.93
2022-11-17T15:36:48.862Z,80.73
2022-11-17T15:39:17.407Z,78.03
2022-11-17T15:41:46.046Z,85.77
2022-11-17T15:44:14.599Z,89.03
2022-11-17T15:46:47.143Z,100.80
2022-11-17T15:49:17.690Z,123.20
2022-11-17T15:51:46.238Z,147.33
2022-11-17T15:54:20.063Z,104.20
2022-11-17T15:56:49.233Z,98.47
2022-11-17T15:59:17.693Z,93.50
2022-11-17T16:01:46.285Z,92.73
2022-11-17T16:04:16.712Z,92.17
2022-11-17T16:06:47.357Z,106.77
2022-11-17T16:09:17.184Z,89.63
2022-11-17T16:11:45.899Z,90.27
2022-11-17T16:14:15.094Z,93.93
2022-11-17T16:16:43.874Z,82.30
2022-11-17T16:19:11.984Z,91.57
2022-11-17T16:21:41.439Z,86.47
2022-11-17T16:24:11.932Z,86.43
2022-11-17T16:26:40.107Z,99.77
2022-11-17T16:29:09.879Z,91.17
2022-11-17T16:31:39.084Z,94.33
2022-11-17T16:34:09.285Z,84.50
2022-11-17T16:36:40.520Z,89.10
2022-11-17T16:39:12.589Z,86.03
2022-11-17T16:41:42.315Z,86.07
2022-11-17T16:44:12.419Z,87.03
2022-11-17T16:46:43.392Z,83.60
2022-11-17T16:49:14.480Z,89.57
2022-11-17T16:51:50.779Z,87.03
2022-11-17T16:54:21.221Z,84.97
2022-11-17T16:56:49.869Z,87.67
2022-11-17T16:59:18.667Z,94.60
2022-11-17T17:01:47.707Z,84.00
2022-11-17T17:04:16.149Z,80.67
2022-11-17T17:06:46.099Z,93.60
2022-11-17T17:09:15.910Z,88.20
2022-11-17T17:11:46.024Z,86.70
2022-11-17T17:14:15.828Z,92.23
2022-11-17T17:16:44.460Z,89.70
2022-11-17T17:19:14.806Z,95.97
2022-11-17T17:21:45.716Z,98.93
2022-11-17T17:24:14.357Z,91.23
2022-11-17T17:26:43.143Z,91.37
2022-11-17T17:29:15.816Z,91.57
2022-11-17T17:31:44.386Z,127.30
2022-11-17T17:34:14.649Z,121.33
2022-11-17T17:36:43.282Z,110.43
2022-11-17T17:39:16.051Z,96.13
2022-11-17T17:41:46.257Z,99.67
2022-11-17T17:44:18.132Z,108.87
2022-11-17T17:46:47.361Z,123.33
2022-11-17T17:49:15.983Z,122.50
2022-11-17T17:51:45.301Z,120.63
2022-11-17T17:54:17.217Z,119.20
2022-11-17T17:56:45.451Z,132.93
2022-11-17T17:59:14.657Z,115.93
2022-11-17T18:01:46.274Z,119.53
2022-11-17T18:04:16.505Z,106.87
2022-11-17T18:06:48.475Z,113.40
2022-11-17T18:09:20.302Z,115.30
2022-11-17T18:11:50.536Z,119.73
2022-11-17T18:14:24.146Z,116.43
2022-11-17T18:16:54.807Z,123.90
2022-11-17T18:19:28.281Z,116.03
2022-11-17T18:21:59.635Z,122.80
2022-11-17T18:24:28.323Z,124.97
2022-11-17T18:26:56.706Z,124.30
2022-11-17T18:29:25.490Z,124.20
2022-11-17T18:31:55.133Z,120.53
2022-11-17T18:34:25.678Z,126.50
2022-11-17T18:36:56.497Z,130.63
2022-11-17T18:39:25.069Z,123.00
2022-11-17T18:41:53.194Z,127.47
2022-11-17T18:44:21.448Z,128.80
2022-11-17T18:46:50.095Z,143.80
2022-11-17T18:49:20.020Z,145.40
2022-11-17T18:51:48.894Z,128.37
2022-11-17T18:54:17.222Z,138.90
2022-11-17T18:56:45.423Z,129.53
2022-11-17T18:59:14.569Z,138.93
2022-11-17T19:01:44.183Z,128.63
2022-11-17T19:04:14.998Z,138.73
2022-11-17T19:06:44.693Z,163.40
2022-11-17T19:09:14.213Z,150.63
2022-11-17T19:11:42.564Z,150.23
2022-11-17T19:14:10.948Z,138.47
2022-11-17T19:16:44.583Z,145.30
2022-11-17T19:19:14.576Z,147.27
2022-11-17T19:21:44.609Z,149.10
2022-11-17T19:24:14.069Z,132.77
2022-11-17T19:26:42.922Z,126.60
2022-11-17T19:29:17.059Z,129.83
2022-11-17T19:31:45.831Z,121.27
2022-11-17T19:34:13.943Z,119.03
2022-11-17T19:36:43.021Z,127.23
2022-11-17T19:39:14.899Z,126.10
2022-11-17T19:41:43.783Z,127.20
2022-11-17T19:44:12.447Z,122.80
2022-11-17T19:46:40.669Z,134.37
2022-11-17T19:49:08.896Z,139.60
2022-11-17T19:51:38.216Z,139.97
2022-11-17T19:54:08.829Z,128.23
2022-11-17T19:56:38.536Z,124.50
2022-11-17T19:59:09.759Z,118.07
2022-11-17T20:01:39.239Z,133.07
2022-11-17T20:04:07.764Z,138.37
2022-11-17T20:06:38.321Z,130.23
2022-11-17T20:09:11.478Z,122.60
2022-11-17T20:11:42.246Z,123.30
2022-11-17T20:14:10.887Z,125.77
2022-11-17T20:16:39.698Z,126.27
2022-11-17T20:19:08.366Z,127.17
2022-11-17T20:21:36.712Z,129.27
2022-11-17T20:24:05.752Z,127.70
2022-11-17T20:26:35.603Z,127.90
2022-11-17T20:29:05.059Z,128.43
2022-11-17T20:31:34.928Z,130.20
2022-11-17T20:34:05.976Z,139.77
2022-11-17T20:36:35.307Z,133.20
2022-11-17T20:39:06.421Z,133.60
2022-11-17T20:41:35.137Z,135.30
2022-11-17T20:44:05.105Z,130.40
2022-11-17T20:46:33.360Z,139.03
2022-11-17T20:49:01.508Z,131.27
2022-11-17T20:51:29.729Z,131.20
2022-11-17T20:53:57.861Z,134.97
2022-11-17T20:56:25.915Z,123.87
2022-11-17T20:58:54.495Z,126.97
2022-11-17T21:01:24.436Z,120.20
2022-11-17T21:03:53.463Z,133.90
2022-11-17T21:06:23.182Z,158.37
2022-11-17T21:08:51.618Z,148.70
2022-11-17T21:11:35.248Z,179.90
2022-11-17T21:14:03.833Z,206.30
2022-11-17T21:16:33.942Z,160.57
2022-11-17T21:19:02.123Z,133.80
2022-11-17T21:21:30.508Z,141.23
2022-11-17T21:23:58.833Z,209.57
2022-11-17T21:26:27.896Z,149.27
2022-11-17T21:28:59.333Z,192.00
2022-11-17T21:31:33.088Z,134.03
2022-11-17T21:34:03.461Z,130.80
2022-11-17T21:36:32.945Z,184.03
2022-11-17T21:39:01.244Z,207.93
2022-11-17T21:41:31.975Z,139.17
2022-11-17T21:44:01.999Z,126.07
2022-11-17T21:46:33.984Z,160.97
2022-11-17T21:49:02.172Z,137.70
2022-11-17T21:51:33.518Z,110.00
2022-11-17T21:54:03.860Z,105.50
2022-11-17T21:56:32.232Z,106.43
2022-11-17T21:59:01.983Z,92.30
2022-11-17T22:01:30.709Z,87.50
2022-11-17T22:04:00.298Z,94.07
2022-11-17T22:06:28.988Z,87.60
2022-11-17T22:08:57.800Z,89.27
2022-11-17T22:11:36.999Z,95.73
2022-11-17T22:14:08.189Z,82.47
2022-11-17T22:16:37.217Z,71.83
2022-11-17T22:19:09.126Z,71.67
2022-11-17T22:21:38.316Z,101.13
2022-11-17T22:24:08.614Z,193.47
2022-11-17T22:26:38.434Z,107.23
2022-11-17T22:29:08.000Z,83.10
2022-11-17T22:31:36.260Z,271.07
2022-11-17T22:34:04.586Z,141.43
2022-11-17T22:36:34.030Z,132.67
2022-11-17T22:39:02.134Z,122.13
2022-11-17T22:41:30.423Z,141.57
2022-11-17T22:43:59.128Z,123.03
2022-11-17T22:46:28.592Z,124.33
2022-11-17T22:48:57.835Z,165.03
2022-11-17T22:51:43.759Z,186.17
2022-11-17T22:54:13.221Z,162.03
2022-11-17T22:56:41.269Z,136.37
2022-11-17T22:59:10.108Z,163.33
2022-11-17T23:01:38.575Z,270.77
2022-11-17T23:04:07.842Z,284.40
2022-11-17T23:06:35.973Z,182.30
2022-11-17T23:09:04.097Z,87.33
2022-11-17T23:11:38.187Z,85.50
2022-11-17T23:14:08.056Z,77.83
2022-11-17T23:16:36.878Z,71.60
2022-11-17T23:19:05.840Z,75.23
2022-11-17T23:21:34.272Z,87.83
2022-11-17T23:24:02.344Z,61.57
2022-11-17T23:26:30.472Z,72.47
2022-11-17T23:29:00.931Z,84.47
2022-11-17T23:31:29.094Z,66.60
2022-11-17T23:33:57.183Z,70.57
2022-11-17T23:36:26.058Z,63.40
2022-11-17T23:38:56.822Z,68.37
2022-11-17T23:41:24.937Z,60.57
2022-11-17T23:43:54.887Z,61.90
2022-11-17T23:46:25.806Z,102.10
2022-11-17T23:48:54.318Z,175.87
2022-11-17T23:51:24.050Z,104.27
2022-11-17T23:53:52.581Z,119.53
2022-11-17T23:56:21.542Z,112.07
2022-11-17T23:58:49.842Z,147.33
